Terminal Aerodrome Forecast
Issued by NWS Bismarck, ND

Home | Current Version | Previous Version | Text Only | Print | Product List | Glossary On
Versions: 1 2 3 4 5 6 7 8 9 10 11 12 13 14 15 16
708
FTUS43 KBIS 231730
TAFISN
TAF
KISN 231730Z 2318/2418 27018G25KT P6SM SCT040
     FM240100 30015KT P6SM SCT050
     FM240300 31009KT P6SM FEW250
     FM240700 28005KT P6SM FEW250
     FM241700 30010KT P6SM SCT080=

USA.gov is the U.S. government's official web portal to all federal, state and local government web resources and services.